Nashville, TN (37229)

12:52 PM CST on November 23, 2014 (GMT -0600)
Woodland Pointe | Change Station
CLOSE
Current Station
Personal Weather Station
Location: Nashville, TN
Elevation: 580 ft
Nearby Weather Stations
Active Advisory: Special Statement

Elev 580 ft 36.12 °N, 86.62 °W | Updated 2 minutes ago

Overcast
Overcast
56.0 °F
Feels Like 56.0 °F
N
1.0
Wind Variable Wind from ESE
Gusts 12.0 mph

Today
High -- | Low -- °F
--% Chance of Precip.
Yesterday
High -- | Low -- °F
Precip. -- in
6:31 AM 4:34 PM
New Moon, 2% visible
Pressure 29.66 in
Visibility 10.0 miles
Clouds Few 1300 ft
Overcast 2500 ft
Dew Point 54 °F
Humidity 92%
Rainfall -999.00 in
Snow Depth Not available.
UV 1 out of 12
Pollen .10 out of 12
Air Quality Not available.
Flu Activity Not available.
SPECI KBNA 231807Z 15012G19KT 10SM FEW013 OVC025 14/13 A2966 RMK AO2 RAE1757 PRESFR P0000

More Conditions Fewer Conditions

Pressure 29.66 in
Visibility 10.0 miles
Clouds Few 1300 ft
Overcast 2500 ft
Dew Point 54 °F
Humidity 92%
Rainfall -999.00 in
Snow Depth Not available.
UV 1 out of 12
Pollen .10 out of 12
Air Quality Not available.
Flu Activity Not available.
SPECI KBNA 231807Z 15012G19KT 10SM FEW013 OVC025 14/13 A2966 RMK AO2 RAE1757 PRESFR P0000

More Conditions Fewer Conditions

10-Day Weather Forecast

Almanac

Astronomy

Nov. 23, 2014 Rise Set
Actual Time
Civil Twilight
Nautical Twilight
Astronomical Twilight
Moon
Length of Visible Light
Length of Day
Tomorrow will be .
, % of the Moon is Illuminated

Today's Extremes

State Highs State Lows

Community

WunderPhotos

Upload Photos

1,773,127 photos uploaded!

WunderBlogs® & News

Nearby

Air Quality

  Air Quality AQ Index Pollutant
Not available.

Snow Depth

Station Depth Elevation

Earthquake Activity

City Distance Mag. Time & Date
Minimum magnitude displayed is 2.5.

Coastal Water Temperatures

Place Temperature

Nearby Weather Stations